Flight Track Log - Related Links

Times and Time Zones

All times are in EDT time to prevent confusion due to time zone crossing. See the PDT4226 flight status page for this flight to view local times or setup timezone preferences in your user account.

Time Position Orientation Groundspeed Altitude Reporting Facility
EDT Latitude Longitude Course Direction KTS MPH feet Rate Location/Type
Fri 12:19:40 PM 39.8667 -75.2833 287° West 118 136 1,000  Level Philadelphia TRACON
Fri 12:20:52 PM 39.8833 -75.3167 303° West 116 133 2,700 1,318 Climbing Philadelphia TRACON
Fri 12:21:52 PM 39.8833 -75.3667 270° West 118 136 3,900 1,163 Climbing Philadelphia TRACON
Fri 12:22:00 PM 40.0914 -75.3079 323° Northwest  Level Estimated
Fri 12:22:30 PM 39.8958 -75.3922 303° West 127 146 4,600  Level New York Center
Fri 12:23:00 PM 40.1644 -75.3304 311° West  Level Estimated
Fri 12:23:30 PM 39.9153 -75.4261 307° West 129 148 5,700  Level New York Center
Fri 12:24:00 PM 40.2374 -75.3529 311° West  Level Estimated
Fri 12:24:30 PM 39.9431 -75.4603 317° Northwest 164 189 6,400  Level New York Center
Fri 12:25:00 PM 40.2590 -75.4470 287° West  Level FlightAware Approximate
Fri 12:25:30 PM 39.9456 -75.5039 274° West 151 174 7,200  Level New York Center
Fri 12:26:30 PM 39.9617 -75.5672 288° West 151 174 8,100 800 Climbing New York Center
Fri 12:27:30 PM 40.0039 -75.5594 North 201 231 8,800 450 Climbing New York Center
Fri 12:28:30 PM 40.0642 -75.5608 359° North 201 231 9,000 100 Climbing New York Center
Fri 12:29:30 PM 40.1206 -75.5592 North 209 241 9,000 500 Level New York Center
Fri 12:30:30 PM 40.1894 -75.5531 North 222 255 10,000 1,000 Climbing New York Center
Fri 12:31:30 PM 40.2347 -75.5697 344° North 195 224 11,000 900 Climbing New York Center
Fri 12:32:30 PM 40.2558 -75.6119 303° West 156 180 11,800 500 Climbing New York Center
Fri 12:33:30 PM 40.2856 -75.6550 312° West 150 173 12,000 100 Climbing New York Center
Fri 12:34:30 PM 40.3247 -75.7122 312° West 180 207 12,000  Level New York Center
Fri 12:35:30 PM 40.3581 -75.7636 310° West 185 213 12,000 350 Level New York Center
Fri 12:36:30 PM 40.3958 -75.8072 319° Northwest 185 213 12,700 850 Climbing New York Center
Fri 12:37:30 PM 40.4386 -75.8267 341° North 174 200 13,700 650 Climbing New York Center
Fri 12:38:30 PM 40.4811 -75.8572 331° Northwest 174 200 14,000 150 Climbing New York Center
Fri 12:39:30 PM 40.5294 -75.8961 329° Northwest 181 208 14,000  Level New York Center
Fri 12:40:30 PM 40.5781 -75.9300 332° Northwest 186 214 14,000  Level New York Center
Fri 12:41:30 PM 40.6289 -75.9611 335° Northwest 197 227 14,000  Level New York Center
Fri 12:42:30 PM 40.6769 -76.0003 328° Northwest 192 221 14,000  Level New York Center
Fri 12:43:30 PM 40.7258 -76.0314 334° Northwest 197 227 14,000  Level New York Center
Fri 12:44:30 PM 40.7742 -76.0681 330° Northwest 197 227 14,000  Level New York Center
Fri 12:45:30 PM 40.8186 -76.0989 332° Northwest 197 227 14,000  Level New York Center
Fri 12:46:30 PM 40.8689 -76.1358 331° Northwest 197 227 14,000  Level New York Center
Fri 12:47:30 PM 40.9236 -76.1731 333° Northwest 197 227 14,000  Level New York Center
Fri 12:48:30 PM 40.9761 -76.2103 332° Northwest 197 227 14,000  Level New York Center
Fri 12:49:30 PM 41.0292 -76.2336 342° North 197 227 14,000  Level New York Center
Fri 12:50:30 PM 41.0881 -76.2219 North 213 245 14,000  Level New York Center
Fri 12:51:30 PM 41.1511 -76.2103 North 229 264 14,000  Level New York Center
Fri 12:52:30 PM 41.2197 -76.2131 358° North 229 264 14,000  Level New York Center
Fri 12:53:30 PM 41.2828 -76.2017 North 229 264 14,000  Level New York Center
Fri 12:54:30 PM 41.3456 -76.1931 North 229 264 14,000  Level New York Center
Fri 12:55:30 PM 41.4039 -76.1922 North 229 264 14,000  Level New York Center
Fri 12:56:30 PM 41.4664 -76.1917 360° North 229 264 14,000 -100 Level New York Center
Fri 12:57:30 PM 41.5378 -76.1808 North 235 270 13,800 -350 Descending New York Center
Fri 12:58:30 PM 41.6069 -76.1725 North 240 276 13,300 -500 Descending New York Center
Fri 12:59:30 PM 41.6756 -76.1697 North 240 276 12,800 -500 Descending New York Center
Fri 01:00:30 PM 41.7372 -76.1442 17° North 240 276 12,300 -500 Descending New York Center
Fri 01:01:30 PM 41.8083 -76.0886 30° Northeast 263 303 11,800 -500 Descending New York Center
Fri 01:02:30 PM 41.8769 -76.0439 26° Northeast 268 308 11,300 -500 Descending New York Center
Fri 01:03:30 PM 41.9394 -75.9958 30° Northeast 268 308 10,800 -500 Descending New York Center
Fri 01:04:30 PM 41.9975 -75.9558 27° Northeast 268 308 10,300 -600 Descending New York Center
Fri 01:05:30 PM 42.0664 -75.9056 28° Northeast 258 297 9,600 -650 Descending New York Center
Fri 01:06:30 PM 42.1242 -75.8681 26° Northeast 245 282 9,000 -300 Descending New York Center
Fri 01:07:30 PM 42.1858 -75.8364 21° North 235 270 9,000  Level New York Center
Fri 01:08:30 PM 42.2261 -75.8675 330° Northwest 181 208 9,000  Level New York Center
Fri 01:09:30 PM 42.2114 -75.9222 250° West 103 119 9,000  Level New York Center
Fri 01:10:30 PM 42.2161 -75.9564 281° West 103 119 9,000  Level New York Center
Fri 01:11:30 PM 42.2189 -75.9900 276° West 103 119 9,000  Level New York Center

Login

Don't have an account? Register now (free) for customized features, flight alerts, and more!